Time;durP1;ratioP1;P1;durP2;ratioP2;P2;SDS_P1;SDS_P2;PMS_P1;PMS_P2;Temp;Humidity;BMP_temperature;BMP_pressure;BME280_temperature;BME280_humidity;BME280_pressure;Samples;Min_cycle;Max_cycle;Signal;HPM_P1;HPM_P2
2022/04/26 03:36:18;;;;;;;6.97;4.97;;;;;;;12.84;50.83;101448.19;6336410;22;20016;-63
2022/04/26 03:38:47;;;;;;;10.20;4.53;;;;;;;12.83;50.90;101450.03;6309737;22;20034;-63
2022/04/26 03:41:16;;;;;;;6.60;4.70;;;;;;;12.83;50.85;101443.78;6337079;22;20030;-64
2022/04/26 03:43:46;;;;;;;7.30;5.13;;;;;;;12.82;51.13;101440.22;6310029;22;20021;-63
2022/04/26 03:46:12;;;;;;;6.30;4.57;;;;;;;12.82;51.04;101444.75;6335880;22;20022;-64
2022/04/26 03:48:39;;;;;;;7.57;4.70;;;;;;;12.83;51.02;101449.16;6308894;22;20064;-64
2022/04/26 03:51:17;;;;;;;8.00;4.43;;;;;;;12.82;51.21;101448.31;6335721;22;20013;-63
2022/04/26 03:53:44;;;;;;;10.20;5.65;;;;;;;12.82;51.18;101448.31;6337135;22;20014;-63
2022/04/26 03:56:10;;;;;;;7.80;5.10;;;;;;;12.82;51.45;101452.84;6309459;22;20345;-63
2022/04/26 03:58:37;;;;;;;6.07;5.13;;;;;;;12.80;51.37;101452.06;6336790;22;20445;-63
2022/04/26 04:01:09;;;;;;;6.85;5.20;;;;;;;12.79;51.48;101459.31;6336420;22;20011;-63
2022/04/26 04:03:38;;;;;;;8.75;4.93;;;;;;;12.78;51.49;101452.19;6336536;22;20015;-64
2022/04/26 04:06:05;;;;;;;7.93;5.40;;;;;;;12.79;51.47;101455.75;6336834;22;20019;-63
2022/04/26 04:08:33;;;;;;;9.20;5.78;;;;;;;12.77;51.71;101452.28;6338013;22;20119;-64
2022/04/26 04:11:04;;;;;;;9.68;5.68;;;;;;;12.77;51.77;101457.69;6338592;22;20010;-64
2022/04/26 04:13:31;;;;;;;8.70;5.70;;;;;;;12.76;51.74;101464.91;6310524;22;20018;-62
2022/04/26 04:15:57;;;;;;;8.57;5.13;;;;;;;12.74;51.94;101456.06;6337804;22;20022;-64
2022/04/26 04:21:15;;;;;;;11.13;5.07;;;;;;;12.76;52.00;101466.75;6338429;22;20326;-64
2022/04/26 04:23:42;;;;;;;7.40;5.50;;;;;;;12.79;51.99;101469.22;6310950;22;20015;-63
2022/04/26 04:26:11;;;;;;;10.45;5.78;;;;;;;12.80;52.06;101468.25;6311708;22;20039;-62
2022/04/26 04:28:39;;;;;;;9.55;5.88;;;;;;;12.82;52.05;101469.00;6337382;22;20007;-64
2022/04/26 04:31:12;;;;;;;8.77;5.07;;;;;;;12.83;52.21;101478.81;6337791;22;20015;-64
2022/04/26 04:33:39;;;;;;;11.10;5.38;;;;;;;12.83;52.08;101474.28;6310986;22;20038;-63
2022/04/26 04:36:06;;;;;;;8.07;5.35;;;;;;;12.86;52.24;101475.91;6337473;22;20094;-64
2022/04/26 04:38:33;;;;;;;7.40;4.93;;;;;;;12.86;52.23;101478.59;6310142;22;20023;-64
2022/04/26 04:41:26;;;;;;;10.38;4.97;;;;;;;12.85;52.20;101483.13;6311152;22;20041;-63
2022/04/26 04:43:56;;;;;;;8.07;5.55;;;;;;;12.87;52.19;101491.97;6337878;22;20021;-63
2022/04/26 04:46:22;;;;;;;8.05;5.07;;;;;;;12.87;52.39;101483.03;6338197;22;20018;-64
2022/04/26 04:48:49;;;;;;;6.95;4.72;;;;;;;12.85;52.67;101487.66;6337482;22;20404;-63
2022/04/26 04:51:19;;;;;;;10.45;5.18;;;;;;;12.85;52.45;101493.91;6310069;22;20014;-64
2022/04/26 04:53:49;;;;;;;10.77;5.63;;;;;;;12.85;52.25;101495.75;6310981;22;20010;-64
2022/04/26 04:56:16;;;;;;;8.05;5.00;;;;;;;12.83;52.46;101498.56;6309953;22;20014;-63
2022/04/26 04:58:42;;;;;;;8.82;5.32;;;;;;;12.83;52.72;101506.63;6310343;22;20030;-64
2022/04/26 05:01:12;;;;;;;9.73;5.22;;;;;;;12.82;52.71;101504.06;6337961;22;20014;-64
2022/04/26 05:03:39;;;;;;;8.73;4.97;;;;;;;12.84;52.61;101513.75;6338145;22;20038;-63
2022/04/26 05:06:06;;;;;;;10.43;5.57;;;;;;;12.84;52.71;101511.06;6337197;22;20018;-64
2022/04/26 05:08:33;;;;;;;9.45;5.60;;;;;;;12.87;52.83;101504.59;6337522;22;20412;-64
2022/04/26 05:11:03;;;;;;;9.43;5.57;;;;;;;12.87;52.91;101512.69;6337425;22;20006;-64
2022/04/26 05:13:29;;;;;;;7.18;4.95;;;;;;;12.89;53.04;101518.81;6337691;22;20017;-64
2022/04/26 05:15:56;;;;;;;9.05;5.78;;;;;;;12.88;53.00;101520.66;6310287;22;20388;-64
2022/04/26 05:18:22;;;;;;;8.70;5.63;;;;;;;12.89;53.14;101526.91;6284102;22;20461;-63
2022/04/26 05:20:54;;;;;;;9.73;5.57;;;;;;;12.90;53.19;101523.25;6337185;22;20429;-64
2022/04/26 05:26:07;;;;;;;9.30;5.40;;;;;;;12.92;52.92;101530.25;6337731;22;20090;-65
2022/04/26 05:28:34;;;;;;;6.53;5.22;;;;;;;12.93;53.09;101529.28;6337988;22;20015;-64
2022/04/26 05:31:06;;;;;;;10.73;5.82;;;;;;;12.94;53.30;101532.84;6309295;22;20038;-65
2022/04/26 05:33:33;;;;;;;13.80;5.88;;;;;;;12.95;53.16;101530.03;6337147;22;20015;-63
2022/04/26 05:36:00;;;;;;;9.65;5.70;;;;;;;12.99;53.24;101533.38;6336503;22;20015;-64
2022/04/26 05:38:26;;;;;;;7.47;5.47;;;;;;;13.00;53.54;101533.28;6337660;22;20333;-64
2022/04/26 05:40:55;;;;;;;9.13;5.72;;;;;;;13.02;53.54;101547.50;6337207;22;20042;-64
2022/04/26 05:43:22;;;;;;;10.68;5.43;;;;;;;13.02;53.45;101544.81;6336975;22;20025;-64
2022/04/26 05:45:49;;;;;;;9.50;6.00;;;;;;;13.03;53.59;101548.38;6309206;22;20015;-63
2022/04/26 05:48:15;;;;;;;10.02;5.90;;;;;;;13.03;53.51;101546.53;6337647;22;20085;-65
2022/04/26 05:50:44;;;;;;;10.18;6.25;;;;;;;13.05;53.69;101550.00;6336828;22;20017;-64
2022/04/26 05:53:11;;;;;;;13.77;7.30;;;;;;;13.07;53.79;101549.03;6337428;22;20018;-63
2022/04/26 05:55:41;;;;;;;7.50;6.40;;;;;;;13.10;53.80;101554.19;6310230;22;20094;-63
2022/04/26 05:58:09;;;;;;;11.50;7.05;;;;;;;13.17;53.73;101555.53;6336878;22;20015;-64
2022/04/26 06:00:37;;;;;;;10.43;6.10;;;;;;;13.20;53.91;101558.88;6336754;22;20022;-64
2022/04/26 06:03:04;;;;;;;11.43;6.32;;;;;;;13.23;53.72;101552.38;6336113;22;20350;-65
2022/04/26 06:05:31;;;;;;;11.27;6.05;;;;;;;13.25;53.78;101559.41;6336772;22;20037;-64
2022/04/26 06:07:59;;;;;;;9.38;6.20;;;;;;;13.30;53.76;101564.47;6336983;22;20025;-64
2022/04/26 06:10:28;;;;;;;11.43;6.72;;;;;;;13.34;54.02;101566.84;6336683;22;20022;-64
2022/04/26 06:12:55;;;;;;;13.65;7.53;;;;;;;13.39;53.82;101566.53;6308843;22;20322;-64
2022/04/26 06:15:22;;;;;;;9.52;6.50;;;;;;;13.46;53.77;101567.84;6309654;22;20446;-64
2022/04/26 06:17:48;;;;;;;11.32;6.88;;;;;;;13.52;53.92;101570.09;6336347;22;20019;-63
2022/04/26 06:20:22;;;;;;;12.48;7.43;;;;;;;13.54;53.78;101568.16;6337284;22;20095;-64
2022/04/26 06:22:49;;;;;;;12.90;7.57;;;;;;;13.59;53.61;101574.06;6337457;22;20086;-64
2022/04/26 06:25:16;;;;;;;12.38;7.03;;;;;;;13.64;53.75;101576.44;6337533;22;20019;-64
2022/04/26 06:27:44;;;;;;;9.25;7.07;;;;;;;13.65;53.75;101576.31;6336840;22;20011;-63
2022/04/26 06:30:15;;;;;;;11.20;8.05;;;;;;;13.67;53.55;101579.78;6336113;22;20041;-64
2022/04/26 06:32:43;;;;;;;12.13;6.90;;;;;;;13.70;53.60;101585.94;6308939;22;20440;-64
2022/04/26 06:35:10;;;;;;;10.82;7.30;;;;;;;13.75;53.42;101584.63;6337102;22;20026;-65
2022/04/26 06:37:37;;;;;;;10.02;7.95;;;;;;;13.78;53.56;101579.00;6336916;22;20290;-64
2022/04/26 06:40:05;;;;;;;11.85;7.47;;;;;;;13.80;53.31;101571.66;6337049;22;20402;-64
2022/04/26 06:42:39;;;;;;;10.23;8.10;;;;;;;13.81;53.24;101583.31;6336444;22;20015;-64
2022/04/26 06:45:06;;;;;;;12.85;7.63;;;;;;;13.80;53.11;101587.84;6337044;22;20090;-65
2022/04/26 06:47:33;;;;;;;12.48;8.02;;;;;;;13.80;53.02;101598.66;6336750;22;20015;-64
2022/04/26 06:50:01;;;;;;;11.63;8.70;;;;;;;13.82;53.34;101595.84;6336227;22;20033;-64
2022/04/26 06:52:28;;;;;;;11.88;9.15;;;;;;;13.84;53.28;101589.34;6336719;22;20015;-64
2022/04/26 06:54:55;;;;;;;14.20;8.95;;;;;;;13.87;53.20;101596.38;6336662;22;20014;-62
2022/04/26 06:57:21;;;;;;;11.13;8.32;;;;;;;13.91;52.99;101595.16;6336570;22;20464;-66
2022/04/26 06:59:48;;;;;;;12.65;8.52;;;;;;;13.96;53.22;101598.38;6336812;22;20010;-61
2022/04/26 07:02:20;;;;;;;13.82;8.90;;;;;;;14.00;52.75;101598.06;6336659;22;20015;-63
2022/04/26 07:04:47;;;;;;;12.75;8.60;;;;;;;14.04;52.98;101604.09;6336462;22;20068;-63
2022/04/26 07:07:13;;;;;;;13.60;8.57;;;;;;;14.08;52.94;101602.03;6336455;22;20022;-63
2022/04/26 07:09:40;;;;;;;14.07;8.80;;;;;;;14.12;52.77;101607.13;6336276;22;20452;-63
2022/04/26 07:12:32;;;;;;;13.23;8.57;;;;;;;14.15;52.89;101604.19;6337228;22;20015;-63
2022/04/26 07:14:58;;;;;;;13.88;8.20;;;;;;;14.23;52.95;101606.31;6337499;22;20017;-63
2022/04/26 07:17:25;;;;;;;13.82;9.07;;;;;;;14.30;52.60;101613.00;6336797;22;20015;-63
2022/04/26 07:19:52;;;;;;;14.40;8.85;;;;;;;14.36;52.77;101620.66;6336495;22;20014;-63
2022/04/26 07:22:29;;;;;;;13.00;9.10;;;;;;;14.43;52.62;101602.16;6337184;22;20089;-63
2022/04/26 07:24:56;;;;;;;14.63;8.93;;;;;;;14.46;52.54;101610.91;6336897;22;20057;-63
2022/04/26 07:27:23;;;;;;;16.10;8.75;;;;;;;14.51;52.61;101610.56;6336578;22;20380;-63
2022/04/26 07:29:51;;;;;;;14.77;9.00;;;;;;;14.59;52.55;101613.53;6336438;22;20007;-63
2022/04/26 07:32:19;;;;;;;13.18;8.38;;;;;;;14.74;52.65;101614.22;6336633;22;20082;-63
2022/04/26 07:34:45;;;;;;;16.38;8.57;;;;;;;14.92;52.67;101620.94;6336128;22;20011;-65
2022/04/26 07:37:12;;;;;;;10.77;8.55;;;;;;;15.09;52.60;101620.50;6335745;22;20011;-66
2022/04/26 07:39:39;;;;;;;14.10;8.85;;;;;;;15.28;52.24;101628.03;6336338;22;20013;-65
2022/04/26 07:42:07;;;;;;;14.73;8.15;;;;;;;15.46;52.51;101626.59;6336555;22;20015;-65
2022/04/26 07:44:35;;;;;;;14.38;8.90;;;;;;;15.65;52.26;101630.59;6310719;22;20441;-62
2022/04/26 07:47:04;;;;;;;14.70;8.00;;;;;;;15.82;52.37;101636.38;6338350;22;20479;-64
2022/04/26 07:49:32;;;;;;;12.65;8.10;;;;;;;15.98;51.97;101641.44;6338089;22;20384;-64
2022/04/26 07:52:02;;;;;;;11.60;8.05;;;;;;;16.10;51.60;101634.16;6338227;22;20006;-64
2022/04/26 07:54:29;;;;;;;14.68;7.82;;;;;;;16.21;51.62;101640.41;6310993;22;20322;-64
2022/04/26 07:56:55;;;;;;;11.10;7.90;;;;;;;16.34;51.34;101640.25;6338109;22;20015;-64
2022/04/26 07:59:22;;;;;;;13.77;7.45;;;;;;;16.43;51.10;101644.09;6338472;22;20011;-64
2022/04/26 08:01:52;;;;;;;13.50;7.30;;;;;;;16.47;50.94;101649.13;6337990;22;20026;-64
2022/04/26 08:04:19;;;;;;;10.93;7.32;;;;;;;16.50;50.80;101639.88;6338452;22;20018;-64
2022/04/26 08:06:46;;;;;;;11.00;7.43;;;;;;;16.55;50.22;101655.75;6338560;22;20015;-64
2022/04/26 08:09:12;;;;;;;10.38;7.25;;;;;;;16.62;50.33;101651.53;6338110;22;20016;-64
2022/04/26 08:11:42;;;;;;;10.13;7.00;;;;;;;16.66;50.36;101658.47;6338078;22;20017;-64
2022/04/26 08:14:09;;;;;;;9.30;7.15;;;;;;;16.68;50.10;101651.06;6338349;22;20022;-64
2022/04/26 08:16:35;;;;;;;14.30;6.95;;;;;;;16.67;49.91;101663.75;6337555;22;20019;-64
2022/04/26 08:19:02;;;;;;;10.90;7.30;;;;;;;16.66;49.66;101675.59;6337880;22;20113;-65
2022/04/26 08:21:38;;;;;;;13.75;7.97;;;;;;;16.66;49.54;101663.88;6337181;22;20011;-66
2022/04/26 08:29:35;;;;;;;;;;;;;;;16.60;49.27;101669.78;6338859;22;20356;-65
2022/04/26 08:32:05;;;;;;;13.05;7.38;;;;;;;16.63;49.16;101664.97;6338107;22;20005;-65
2022/04/26 08:34:32;;;;;;;11.27;7.40;;;;;;;16.62;49.25;101668.69;6337941;22;20015;-65
2022/04/26 08:36:59;;;;;;;14.98;8.27;;;;;;;16.64;49.37;101677.53;6337740;22;20018;-65
2022/04/26 08:39:25;;;;;;;20.50;7.82;;;;;;;16.66;49.43;101670.19;6338321;22;20011;-65
2022/04/26 08:41:58;;;;;;;12.27;7.90;;;;;;;16.66;49.08;101675.59;6338149;22;20325;-65
2022/04/26 08:44:29;;;;;;;12.18;7.80;;;;;;;16.68;49.26;101672.75;6337729;22;20480;-65
2022/04/26 08:52:48;;;;;;;10.40;7.50;;;;;;;16.76;48.66;101684.69;6337606;22;20460;-66
2022/04/26 08:55:15;;;;;;;15.13;8.00;;;;;;;16.83;48.57;101685.03;6337720;22;20030;-66
2022/04/26 08:57:41;;;;;;;13.82;8.25;;;;;;;16.87;48.87;101681.06;6337656;22;20011;-67
2022/04/26 09:00:28;;;;;;;12.02;7.53;;;;;;;16.87;48.26;101683.78;6309841;22;20020;-65
2022/04/26 09:03:03;;;;;;;11.35;8.38;;;;;;;16.92;48.55;101694.25;6337618;22;20014;-66
2022/04/26 09:05:30;;;;;;;12.13;7.70;;;;;;;16.96;48.22;101687.56;6310803;22;20011;-65
2022/04/26 09:07:58;;;;;;;10.95;8.00;;;;;;;16.98;48.40;101694.59;6310201;22;20078;-64
2022/04/26 09:10:29;;;;;;;10.35;7.72;;;;;;;16.97;48.16;101692.88;6338021;22;20024;-64
2022/04/26 09:13:14;;;;;;;10.77;7.47;;;;;;;16.96;48.05;101695.72;6309794;22;20342;-64
2022/04/26 09:15:48;;;;;;;15.07;7.40;;;;;;;16.98;48.34;101694.59;6337591;22;20358;-64
2022/04/26 09:18:15;;;;;;;8.82;7.65;;;;;;;16.96;47.56;101696.56;6337412;22;20018;-63
2022/04/26 09:20:45;;;;;;;9.25;7.57;;;;;;;16.98;47.70;101689.16;6337461;22;20018;-64
2022/04/26 09:23:26;;;;;;;9.70;6.97;;;;;;;17.03;47.72;101692.34;6337299;22;20429;-63
2022/04/26 09:26:06;;;;;;;9.18;6.63;;;;;;;17.14;47.65;101692.34;6309424;22;20026;-64
2022/04/26 09:28:33;;;;;;;9.52;6.55;;;;;;;17.26;47.39;101693.13;6337466;22;20018;-64
2022/04/26 09:31:22;;;;;;;11.32;6.35;;;;;;;17.43;47.36;101691.69;6309543;22;20341;-65
2022/04/26 09:33:57;;;;;;;8.40;5.75;;;;;;;17.66;47.14;101690.56;6337231;22;20026;-63
2022/04/26 09:36:28;;;;;;;9.90;5.47;;;;;;;17.88;46.99;101691.44;6337615;22;20015;-63
2022/04/26 09:38:59;;;;;;;9.48;5.57;;;;;;;18.06;46.09;101692.50;6310098;22;20098;-65
2022/04/26 09:41:32;;;;;;;8.45;5.47;;;;;;;18.25;45.78;101698.00;6336777;22;20014;-64
2022/04/26 09:44:03;;;;;;;5.32;4.60;;;;;;;18.43;45.03;101704.50;6337290;22;20019;-64
2022/04/26 09:46:46;;;;;;;8.75;5.20;;;;;;;18.60;44.45;101704.88;6337456;22;20013;-65
2022/04/26 09:49:17;;;;;;;7.53;5.35;;;;;;;18.70;43.96;101714.78;6337296;22;20022;-65
2022/04/26 09:51:54;;;;;;;7.00;4.93;;;;;;;18.78;43.49;101716.81;6337340;22;20014;-64
2022/04/26 09:54:21;;;;;;;9.85;4.82;;;;;;;18.85;43.22;101708.94;6308532;22;20042;-64
2022/04/26 09:56:49;;;;;;;9.43;4.70;;;;;;;18.96;43.34;101719.69;6336726;22;20064;-64
2022/04/26 09:59:29;;;;;;;6.53;4.30;;;;;;;19.03;42.50;101727.16;6336899;22;20015;-64
2022/04/26 10:02:01;;;;;;;7.95;4.40;;;;;;;19.09;42.38;101731.16;6337064;22;20010;-64
2022/04/26 10:04:31;;;;;;;6.57;4.30;;;;;;;19.15;42.38;101729.72;6336332;22;20085;-65
2022/04/26 10:07:11;;;;;;;6.38;4.40;;;;;;;19.20;41.90;101727.44;6308982;22;20018;-65
2022/04/26 10:09:39;;;;;;;7.82;4.55;;;;;;;19.25;41.90;101730.59;6285132;22;20007;-63
2022/04/26 10:12:11;;;;;;;14.18;5.25;;;;;;;19.29;42.03;101730.16;6336464;22;20318;-64
2022/04/26 10:14:38;;;;;;;6.93;4.82;;;;;;;19.33;41.91;101730.75;6336604;22;20022;-64
2022/04/26 10:17:05;;;;;;;6.63;4.50;;;;;;;19.34;41.70;101737.94;6336797;22;20010;-65
2022/04/26 10:19:44;;;;;;;6.55;4.28;;;;;;;19.36;41.39;101735.91;6336756;22;20022;-64
2022/04/26 10:22:17;;;;;;;6.25;4.50;;;;;;;19.40;41.21;101737.34;6337186;22;20015;-64
2022/04/26 10:25:11;;;;;;;4.93;3.95;;;;;;;19.41;40.91;101733.63;6336683;22;20430;-63
2022/04/26 10:27:40;;;;;;;4.78;3.75;;;;;;;19.46;40.89;101744.09;6336500;22;20050;-64
2022/04/26 10:32:38;;;;;;;5.10;3.80;;;;;;;19.58;40.32;101748.41;6336892;22;20078;-63
2022/04/26 10:35:23;;;;;;;7.85;4.28;;;;;;;19.62;40.21;101750.69;6336417;22;20044;-64
2022/04/26 10:38:13;;;;;;;5.90;3.80;;;;;;;19.67;39.62;101740.22;6336384;22;20011;-63
2022/04/26 10:41:06;;;;;;;6.32;4.35;;;;;;;19.75;39.75;101746.81;6336415;22;20068;-64
2022/04/26 10:43:33;;;;;;;8.63;4.32;;;;;;;19.82;39.54;101743.34;6336084;22;20371;-64
2022/04/26 10:46:16;;;;;;;7.90;4.38;;;;;;;19.96;39.23;101751.03;6336276;22;20011;-64
2022/04/26 10:48:42;;;;;;;8.05;4.28;;;;;;;20.15;39.41;101746.56;6336415;22;20042;-66
2022/04/26 10:51:36;;;;;;;7.50;4.78;;;;;;;20.29;39.06;101743.34;6336300;22;20019;-64
2022/04/26 10:54:03;;;;;;;6.97;4.57;;;;;;;20.44;38.90;101736.41;6335773;22;20090;-64
2022/04/26 10:56:31;;;;;;;7.43;4.57;;;;;;;20.58;38.62;101743.22;6336876;22;20021;-65
2022/04/26 10:58:57;;;;;;;7.20;4.88;;;;;;;20.68;38.52;101741.31;6336038;22;20042;-64
2022/04/26 11:01:28;;;;;;;7.22;4.40;;;;;;;20.79;38.53;101741.09;6336630;22;20468;-64
2022/04/26 11:03:57;;;;;;;8.48;4.80;;;;;;;20.89;37.78;101735.59;6308753;22;20019;-64
2022/04/26 11:06:39;;;;;;;7.05;4.45;;;;;;;20.97;37.81;101743.00;6338002;22;20082;-65
2022/04/26 11:09:10;;;;;;;7.70;4.47;;;;;;;21.04;37.48;101744.09;6338095;22;20019;-64
2022/04/26 11:11:54;;;;;;;5.97;4.00;;;;;;;21.10;37.08;101744.34;6337685;22;20082;-64
2022/04/26 11:14:24;;;;;;;5.47;3.87;;;;;;;21.18;37.37;101749.88;6338102;22;20014;-65
2022/04/26 11:17:02;;;;;;;6.10;3.78;;;;;;;21.19;36.67;101750.75;6338607;22;20255;-64
2022/04/26 11:19:31;;;;;;;5.57;3.72;;;;;;;21.21;36.58;101751.44;6340152;22;20077;-64
2022/04/26 11:22:15;;;;;;;6.05;3.90;;;;;;;21.27;36.68;101750.84;6339579;22;20007;-64
2022/04/26 11:30:24;;;;;;;5.15;3.58;;;;;;;21.22;35.98;101754.06;6338653;22;20015;-65
2022/04/26 11:32:51;;;;;;;5.32;2.83;;;;;;;21.15;35.77;101758.41;6340014;22;20011;-65
2022/04/26 11:35:21;;;;;;;5.22;3.33;;;;;;;21.11;36.08;101758.84;6339666;22;20015;-64
2022/04/26 11:37:49;;;;;;;6.22;3.53;;;;;;;21.11;36.35;101759.72;6340230;22;20045;-65
2022/04/26 11:40:25;;;;;;;7.47;4.18;;;;;;;21.07;36.35;101755.59;6339856;22;20019;-64
2022/04/26 11:42:53;;;;;;;10.98;3.95;;;;;;;21.03;36.26;101758.78;6339467;22;20018;-64
2022/04/26 11:45:21;;;;;;;10.45;4.25;;;;;;;20.94;36.21;101764.16;6339969;22;20010;-64
2022/04/26 11:47:49;;;;;;;6.28;4.40;;;;;;;20.85;36.20;101767.81;6338778;22;20019;-64
2022/04/26 11:50:31;;;;;;;8.38;4.25;;;;;;;20.78;36.15;101765.81;6339372;22;20056;-64
2022/04/26 11:53:02;;;;;;;5.47;3.70;;;;;;;20.77;36.25;101762.22;6311995;22;20017;-64
2022/04/26 11:55:31;;;;;;;6.78;4.25;;;;;;;20.74;36.01;101762.53;6339751;22;20018;-64
2022/04/26 11:58:12;;;;;;;4.10;3.42;;;;;;;20.74;36.07;101758.94;6338786;22;20017;-64
2022/04/26 12:01:11;;;;;;;7.45;3.75;;;;;;;20.73;35.85;101773.59;6339454;22;20015;-65
2022/04/26 12:03:46;;;;;;;6.97;4.47;;;;;;;20.72;36.21;101763.69;6339260;22;20448;-65
2022/04/26 12:06:14;;;;;;;;;;;;;;;20.71;36.43;101765.56;6339895;22;20015;-65
2022/04/26 12:08:44;;;;;;;6.03;3.70;;;;;;;20.80;36.39;101777.44;6311753;22;19914;-64
2022/04/26 12:11:28;;;;;;;7.57;4.13;;;;;;;20.79;36.09;101773.84;6339055;22;20007;-65
2022/04/26 12:14:06;;;;;;;5.75;3.97;;;;;;;20.80;36.29;101775.56;6338601;22;20019;-64
2022/04/26 12:16:41;;;;;;;5.20;4.22;;;;;;;20.84;35.83;101770.69;6338944;22;20007;-65
2022/04/26 12:19:07;;;;;;;5.03;3.83;;;;;;;20.88;36.13;101775.69;6312616;22;20018;-64
2022/04/26 12:21:52;;;;;;;6.68;4.45;;;;;;;20.93;35.74;101767.03;6339037;22;20333;-65
2022/04/26 12:24:27;;;;;;;5.45;4.13;;;;;;;20.98;35.65;101772.03;6338916;22;20015;-65
2022/04/26 12:27:04;;;;;;;5.97;4.07;;;;;;;21.01;35.46;101778.06;6285708;22;20475;-65
2022/04/26 12:29:39;;;;;;;5.85;3.97;;;;;;;21.09;35.85;101767.22;6338268;22;20006;-65
2022/04/26 12:32:13;;;;;;;5.85;3.72;;;;;;;21.21;35.61;101773.31;6338751;22;20341;-65
2022/04/26 12:34:48;;;;;;;6.00;3.80;;;;;;;21.27;35.22;101769.97;6338072;22;20045;-65
2022/04/26 12:37:29;;;;;;;7.72;4.25;;;;;;;21.24;35.21;101768.41;6339121;22;20089;-65
2022/04/26 12:40:00;;;;;;;5.68;3.78;;;;;;;21.19;35.04;101769.88;6338576;22;20015;-64
2022/04/26 12:42:38;;;;;;;7.78;4.15;;;;;;;21.20;35.05;101774.31;6338102;22;20086;-65
2022/04/26 12:45:24;;;;;;;5.53;3.85;;;;;;;21.29;34.59;101776.16;6338870;22;20342;-65
2022/04/26 12:51:17;;;;;;;7.82;3.95;;;;;;;21.61;34.63;101780.22;6338395;22;20011;-65
2022/04/26 12:53:45;;;;;;;5.70;3.70;;;;;;;21.76;34.92;101776.75;6338793;22;20021;-65
2022/04/26 12:56:12;;;;;;;7.47;3.92;;;;;;;21.93;34.36;101771.41;6310998;22;20063;-65
2022/04/26 12:58:44;;;;;;;4.80;3.92;;;;;;;22.08;34.16;101770.69;6338633;22;20014;-65
2022/04/26 13:01:13;;;;;;;8.27;4.10;;;;;;;22.22;34.26;101771.09;6338304;22;20010;-65
2022/04/26 13:03:41;;;;;;;5.50;3.72;;;;;;;22.33;33.79;101768.97;6338003;22;20015;-65
2022/04/26 13:06:09;;;;;;;9.57;3.55;;;;;;;22.40;33.53;101758.22;6338482;22;20014;-65
2022/04/26 13:08:56;;;;;;;5.07;3.55;;;;;;;22.43;33.90;101764.22;6338030;22;20072;-64
2022/04/26 13:11:28;;;;;;;5.88;4.00;;;;;;;22.37;33.47;101770.34;6338724;22;20014;-65
2022/04/26 13:13:55;;;;;;;4.53;3.63;;;;;;;22.27;32.99;101763.25;6338040;22;20011;-65
2022/04/26 13:16:21;;;;;;;5.22;3.90;;;;;;;22.22;33.22;101763.75;6338196;22;20021;-65
2022/04/26 13:18:48;;;;;;;5.40;4.22;;;;;;;22.14;32.85;101767.28;6338225;22;20015;-66
2022/04/26 13:21:17;;;;;;;4.32;3.92;;;;;;;22.08;33.08;101764.34;6338833;22;20015;-65
2022/04/26 13:23:44;;;;;;;5.68;3.83;;;;;;;22.01;32.94;101765.97;6337633;22;20042;-66
2022/04/26 13:26:10;;;;;;;6.25;4.22;;;;;;;21.93;33.20;101766.78;6338550;22;20357;-65
2022/04/26 13:28:37;;;;;;;4.50;3.83;;;;;;;21.84;32.94;101767.75;6338620;22;20025;-66
2022/04/26 13:31:28;;;;;;;5.38;3.97;;;;;;;21.73;32.85;101773.47;6337739;22;20015;-66
2022/04/26 13:33:56;;;;;;;6.25;4.13;;;;;;;21.71;33.32;101768.16;6338313;22;20014;-66
2022/04/26 13:36:43;;;;;;;7.35;4.93;;;;;;;21.76;33.05;101751.28;6337959;22;20091;-66
2022/04/26 13:39:10;;;;;;;6.43;4.15;;;;;;;21.78;33.37;101763.78;6337924;22;20019;-66
2022/04/26 13:41:38;;;;;;;7.03;3.92;;;;;;;21.86;32.94;101763.84;6337660;22;20038;-66
2022/04/26 13:44:05;;;;;;;7.82;4.15;;;;;;;21.92;33.29;101767.81;6337890;22;20011;-66
2022/04/26 13:46:32;;;;;;;5.68;3.92;;;;;;;21.91;32.79;101770.69;6337946;22;20085;-65
2022/04/26 13:48:58;;;;;;;8.15;4.72;;;;;;;21.87;33.10;101767.44;6338614;22;20011;-66
2022/04/26 13:51:29;;;;;;;7.20;3.70;;;;;;;21.80;32.47;101774.56;6338108;22;20007;-66
2022/04/26 13:53:56;;;;;;;5.55;3.70;;;;;;;21.70;32.44;101771.91;6338005;22;20026;-66
2022/04/26 13:56:24;;;;;;;6.35;3.75;;;;;;;21.66;32.90;101766.94;6338105;22;20010;-66
2022/04/26 13:58:51;;;;;;;5.20;3.53;;;;;;;21.62;32.96;101777.31;6338373;22;20019;-66
2022/04/26 14:01:23;;;;;;;6.65;3.72;;;;;;;21.61;32.88;101772.88;6337059;22;20021;-66
2022/04/26 14:03:49;;;;;;;6.93;3.97;;;;;;;21.61;32.62;101774.75;6338067;22;20090;-66
2022/04/26 14:06:21;;;;;;;5.38;3.97;;;;;;;21.55;32.64;101779.84;6339159;22;20345;-66
2022/04/26 14:08:49;;;;;;;9.05;4.18;;;;;;;21.50;32.52;101773.94;6337907;22;20014;-66
2022/04/26 14:11:21;;;;;;;6.82;3.60;;;;;;;21.50;32.79;101773.09;6338034;22;20019;-66
2022/04/26 14:22:32;;;;;;;5.40;3.88;;;;;;;21.50;32.50;101765.75;6338004;22;20437;-66
2022/04/26 14:25:10;;;;;;;10.00;4.65;;;;;;;21.55;32.17;101771.63;6338171;22;20023;-65
2022/04/26 14:27:39;;;;;;;4.97;3.35;;;;;;;21.57;32.38;101774.22;6338859;22;20011;-65
2022/04/26 14:30:31;;;;;;;5.72;3.60;;;;;;;21.60;32.19;101767.56;6337851;22;20524;-65
2022/04/26 14:33:07;;;;;;;5.05;3.88;;;;;;;21.73;32.49;101778.94;6338789;22;20022;-67
2022/04/26 14:35:35;;;;;;;4.70;3.55;;;;;;;21.76;32.23;101773.16;6338632;22;20042;-65
2022/04/26 14:38:02;;;;;;;9.10;4.00;;;;;;;21.71;32.02;101776.38;6337684;22;20017;-65
2022/04/26 14:40:32;;;;;;;6.63;4.07;;;;;;;21.66;31.79;101775.13;6338168;22;20325;-65
2022/04/26 14:43:04;;;;;;;9.82;4.38;;;;;;;21.68;31.61;101771.22;6337850;22;20010;-65
2022/04/26 14:45:32;;;;;;;8.82;4.15;;;;;;;21.71;31.71;101773.63;6310479;22;20039;-65
2022/04/26 14:48:02;;;;;;;6.43;4.20;;;;;;;21.78;31.92;101771.97;6310887;22;20368;-64
2022/04/26 14:50:30;;;;;;;10.68;4.20;;;;;;;21.80;31.62;101771.81;6338138;22;20021;-64
2022/04/26 14:52:57;;;;;;;6.13;3.80;;;;;;;21.82;31.37;101767.91;6337346;22;20026;-64
2022/04/26 14:55:23;;;;;;;4.65;3.50;;;;;;;21.93;31.87;101775.00;6338317;22;20011;-64
2022/04/26 14:57:50;;;;;;;6.03;3.65;;;;;;;22.06;31.73;101783.66;6337688;22;20045;-65
2022/04/26 15:00:21;;;;;;;8.77;4.30;;;;;;;22.18;31.40;101778.78;6337677;22;20018;-65
2022/04/26 15:02:47;;;;;;;8.48;4.30;;;;;;;22.22;31.49;101779.31;6337754;22;20328;-65
2022/04/26 15:05:14;;;;;;;7.53;4.40;;;;;;;22.22;30.83;101774.69;6338114;22;20007;-65
2022/04/26 15:10:48;;;;;;;5.80;4.30;;;;;;;22.18;31.22;101779.63;6242216;22;20020;-65
2022/04/26 15:18:50;;;;;;;6.03;3.70;;;;;;;22.06;31.09;101772.72;6337657;22;20052;-65
2022/04/26 15:21:23;;;;;;;7.78;4.22;;;;;;;21.98;31.18;101775.38;6337529;22;20019;-67
2022/04/26 15:23:51;;;;;;;5.45;3.80;;;;;;;21.79;30.88;101778.31;6337181;22;20015;-65
2022/04/26 15:26:17;;;;;;;5.50;3.75;;;;;;;21.57;30.72;101782.41;6338080;22;20014;-65
2022/04/26 15:28:44;;;;;;;6.43;4.22;;;;;;;21.40;30.79;101783.25;6337977;22;20015;-65
2022/04/26 15:31:18;;;;;;;7.53;3.78;;;;;;;21.19;31.34;101784.38;6337206;22;20462;-65
2022/04/26 15:33:46;;;;;;;5.88;4.00;;;;;;;21.02;31.50;101787.09;6338435;22;20018;-63
2022/04/26 15:36:17;;;;;;;8.55;3.92;;;;;;;20.86;31.28;101791.38;6338138;22;20011;-64
2022/04/26 15:38:45;;;;;;;4.93;3.47;;;;;;;20.71;31.38;101794.72;6337114;22;20017;-64
2022/04/26 15:41:16;;;;;;;9.48;4.32;;;;;;;20.58;31.85;101804.13;6336647;22;20022;-65
2022/04/26 15:43:42;;;;;;;6.47;3.75;;;;;;;20.51;32.13;101793.97;6336789;22;20018;-64
2022/04/26 15:46:29;;;;;;;4.93;3.92;;;;;;;20.52;31.92;101793.81;6336315;22;20011;-64
2022/04/26 15:48:59;;;;;;;7.50;4.15;;;;;;;20.47;32.25;101803.47;6309568;22;20084;-63
2022/04/26 15:51:27;;;;;;;10.02;4.00;;;;;;;20.39;32.09;101798.75;6336527;22;20524;-64
2022/04/26 15:53:54;;;;;;;6.22;3.90;;;;;;;20.29;32.50;101795.19;6336000;22;20018;-64
2022/04/26 15:56:20;;;;;;;7.05;3.70;;;;;;;20.21;32.25;101795.91;6308341;22;20018;-64
2022/04/26 15:58:47;;;;;;;6.57;4.15;;;;;;;20.15;32.15;101801.97;6335959;22;20402;-64